createdAt,value
2023-06-07T00:00:02.580Z,10.52
2023-06-07T00:02:42.316Z,9.60
2023-06-07T00:05:11.915Z,9.95
2023-06-07T00:07:39.597Z,10.52
2023-06-07T00:10:08.047Z,11.20
2023-06-07T00:12:35.902Z,10.70
2023-06-07T00:15:03.591Z,11.15
2023-06-07T00:17:31.568Z,10.02
2023-06-07T00:19:59.012Z,10.48
2023-06-07T00:22:26.641Z,10.82
2023-06-07T00:24:55.056Z,10.57
2023-06-07T00:27:22.708Z,11.13
2023-06-07T00:29:49.970Z,10.40
2023-06-07T00:32:17.682Z,9.90
2023-06-07T00:34:45.033Z,10.63
2023-06-07T00:37:12.669Z,9.63
2023-06-07T00:39:39.949Z,10.73
2023-06-07T00:42:07.952Z,9.70
2023-06-07T00:44:35.403Z,11.77
2023-06-07T00:47:03.872Z,10.45
2023-06-07T00:49:31.844Z,9.57
2023-06-07T00:51:59.790Z,8.95
2023-06-07T00:54:28.980Z,7.82
2023-06-07T00:56:56.913Z,8.35
2023-06-07T00:59:24.426Z,9.60
2023-06-07T01:01:56.977Z,11.75
2023-06-07T01:04:25.816Z,11.13
2023-06-07T01:06:53.727Z,9.32
2023-06-07T01:09:22.941Z,10.05
2023-06-07T01:11:54.527Z,11.25
2023-06-07T01:14:23.541Z,10.27
2023-06-07T01:16:54.323Z,9.52
2023-06-07T01:19:35.832Z,10.02
2023-06-07T01:22:09.309Z,10.40
2023-06-07T01:24:38.690Z,9.98
2023-06-07T01:27:08.410Z,10.07
2023-06-07T01:29:36.248Z,9.57
2023-06-07T01:32:09.256Z,8.07
2023-06-07T01:34:37.851Z,8.25
2023-06-07T01:37:06.983Z,8.18
2023-06-07T01:39:35.183Z,9.50
2023-06-07T01:42:04.624Z,9.75
2023-06-07T01:44:33.156Z,9.93
2023-06-07T01:47:00.815Z,8.75
2023-06-07T01:49:28.204Z,8.38
2023-06-07T01:51:55.858Z,10.15
2023-06-07T01:54:23.543Z,10.02
2023-06-07T01:57:04.717Z,10.68
2023-06-07T02:00:09.710Z,9.98
2023-06-07T02:03:28.239Z,10.07
2023-06-07T02:06:02.644Z,9.40
2023-06-07T02:08:43.082Z,9.65
2023-06-07T02:11:11.867Z,9.88
2023-06-07T02:13:44.624Z,9.75
2023-06-07T02:16:12.944Z,9.85
2023-06-07T02:18:42.234Z,9.63
2023-06-07T02:21:11.374Z,9.05
2023-06-07T02:23:39.777Z,10.05
2023-06-07T02:26:07.073Z,9.85
2023-06-07T02:28:34.592Z,9.40
2023-06-07T02:31:01.931Z,9.00
2023-06-07T02:33:29.638Z,9.10
2023-06-07T02:35:57.211Z,8.32
2023-06-07T02:38:24.917Z,8.35
2023-06-07T02:40:54.439Z,7.88
2023-06-07T02:43:22.032Z,8.20
2023-06-07T02:45:49.371Z,7.68
2023-06-07T02:48:17.646Z,8.55
2023-06-07T02:50:45.023Z,8.70
2023-06-07T02:53:12.580Z,8.30
2023-06-07T02:55:39.869Z,8.63
2023-06-07T02:58:08.334Z,8.65
2023-06-07T03:00:35.643Z,8.70
2023-06-07T03:03:06.649Z,8.77
2023-06-07T03:05:34.924Z,8.48
2023-06-07T03:08:03.827Z,8.45
2023-06-07T03:10:31.297Z,8.32
2023-06-07T03:12:58.858Z,8.70
2023-06-07T03:15:26.151Z,8.40
2023-06-07T03:17:53.757Z,7.53
2023-06-07T03:20:22.813Z,7.93
2023-06-07T03:22:50.493Z,7.00
2023-06-07T03:25:17.876Z,7.97
2023-06-07T03:27:46.613Z,6.72
2023-06-07T03:30:14.016Z,8.15
2023-06-07T03:32:42.293Z,8.13
2023-06-07T03:35:09.889Z,7.45
2023-06-07T03:37:37.469Z,7.32
2023-06-07T03:40:06.081Z,9.38
2023-06-07T03:42:33.852Z,17.70
2023-06-07T03:45:01.223Z,11.45
2023-06-07T03:47:29.434Z,13.75
2023-06-07T03:49:56.708Z,12.23
2023-06-07T03:52:24.303Z,9.57
2023-06-07T03:54:51.572Z,9.65
2023-06-07T03:57:19.212Z,11.48
2023-06-07T03:59:46.700Z,11.05
2023-06-07T04:02:14.237Z,11.88
2023-06-07T04:04:41.557Z,13.80
2023-06-07T04:07:09.968Z,9.20
2023-06-07T04:09:37.271Z,10.68
2023-06-07T04:12:06.777Z,8.63
2023-06-07T04:14:34.077Z,10.13
2023-06-07T04:17:02.077Z,9.40
2023-06-07T04:19:29.527Z,9.48
2023-06-07T04:21:57.116Z,10.15
2023-06-07T04:24:24.452Z,9.02
2023-06-07T04:26:54.550Z,9.52
2023-06-07T04:29:24.864Z,9.27
2023-06-07T04:31:58.071Z,9.15
2023-06-07T04:34:25.788Z,10.10
2023-06-07T04:36:54.058Z,10.20
2023-06-07T04:39:21.736Z,16.38
2023-06-07T04:41:50.383Z,9.32
2023-06-07T04:44:29.071Z,9.02
2023-06-07T04:47:05.162Z,10.73
2023-06-07T04:49:36.627Z,10.40
2023-06-07T04:52:06.851Z,11.93
2023-06-07T04:54:37.755Z,12.38
2023-06-07T04:57:10.106Z,11.63
2023-06-07T04:59:44.055Z,11.95
2023-06-07T05:02:12.272Z,11.52
2023-06-07T05:04:39.596Z,15.65
2023-06-07T05:07:15.016Z,12.27
2023-06-07T05:09:42.386Z,11.32
2023-06-07T05:12:10.244Z,10.40
2023-06-07T05:14:37.591Z,11.05
2023-06-07T05:17:06.757Z,10.15
2023-06-07T05:19:34.058Z,10.40
2023-06-07T05:22:01.664Z,10.48
2023-06-07T05:24:29.009Z,11.30
2023-06-07T05:26:56.635Z,14.10
2023-06-07T05:29:23.957Z,16.48
2023-06-07T05:31:51.617Z,10.30
2023-06-07T05:34:19.121Z,8.50
2023-06-07T05:36:46.721Z,8.55
2023-06-07T05:39:13.991Z,8.52
2023-06-07T05:41:41.669Z,8.52
2023-06-07T05:44:08.966Z,8.63
2023-06-07T05:46:36.513Z,7.60
2023-06-07T05:49:04.471Z,8.18
2023-06-07T05:51:32.494Z,8.02
2023-06-07T05:53:59.994Z,7.78
2023-06-07T05:56:29.019Z,10.00
2023-06-07T05:58:56.272Z,7.78
2023-06-07T06:01:23.997Z,7.05
2023-06-07T06:03:51.333Z,7.07
2023-06-07T06:06:19.663Z,7.57
2023-06-07T06:08:47.183Z,7.50
2023-06-07T06:11:15.384Z,6.68
2023-06-07T06:13:44.606Z,5.97
2023-06-07T06:16:13.072Z,6.35
2023-06-07T06:18:44.360Z,6.43
2023-06-07T06:21:11.921Z,8.18
2023-06-07T06:23:39.491Z,6.78
2023-06-07T06:26:07.160Z,6.05
2023-06-07T06:28:34.406Z,5.55
2023-06-07T06:31:04.383Z,5.20
2023-06-07T06:33:31.881Z,5.00
2023-06-07T06:36:00.706Z,5.20
2023-06-07T06:38:28.027Z,6.07
2023-06-07T06:40:55.618Z,5.43
2023-06-07T06:43:23.015Z,5.72
2023-06-07T06:45:50.615Z,5.43
2023-06-07T06:48:17.901Z,8.07
2023-06-07T06:50:48.154Z,6.20
2023-06-07T06:53:15.689Z,5.78
2023-06-07T06:55:43.239Z,6.35
2023-06-07T06:58:10.591Z,6.57
2023-06-07T07:00:41.121Z,6.57
2023-06-07T07:03:08.535Z,6.50
2023-06-07T07:05:36.325Z,6.78
2023-06-07T07:08:04.735Z,5.88
2023-06-07T07:10:32.360Z,7.25
2023-06-07T07:12:59.811Z,5.28
2023-06-07T07:15:28.972Z,5.47
2023-06-07T07:17:56.414Z,4.97
2023-06-07T07:20:24.220Z,6.53
2023-06-07T07:22:51.605Z,5.95
2023-06-07T07:25:19.243Z,5.55
2023-06-07T07:27:46.509Z,4.47
2023-06-07T07:30:14.440Z,7.10
2023-06-07T07:32:41.785Z,4.97
2023-06-07T07:35:09.591Z,5.13
2023-06-07T07:37:39.548Z,4.18
2023-06-07T07:40:10.577Z,4.10
2023-06-07T07:42:39.293Z,3.80
2023-06-07T07:45:08.411Z,4.75
2023-06-07T07:47:35.945Z,3.70
2023-06-07T07:50:05.763Z,4.18
2023-06-07T07:52:33.344Z,3.97
2023-06-07T07:55:02.201Z,3.47
2023-06-07T07:57:30.808Z,5.95
2023-06-07T07:59:58.511Z,11.57
2023-06-07T08:02:25.849Z,6.13
2023-06-07T08:04:55.027Z,3.08
2023-06-07T08:07:22.838Z,3.45
2023-06-07T08:09:50.494Z,7.88
2023-06-07T08:12:17.944Z,3.53
2023-06-07T08:14:45.702Z,3.03
2023-06-07T08:17:12.992Z,2.95
2023-06-07T08:19:41.045Z,3.20
2023-06-07T08:22:08.440Z,3.38
2023-06-07T08:24:36.105Z,7.80
2023-06-07T08:27:03.612Z,5.00
2023-06-07T08:29:31.340Z,4.00
2023-06-07T08:31:59.109Z,3.50
2023-06-07T08:34:31.694Z,3.40
2023-06-07T08:37:01.724Z,3.60
2023-06-07T08:39:30.030Z,4.43
2023-06-07T08:42:03.857Z,5.38
2023-06-07T08:44:31.559Z,3.33
2023-06-07T08:47:06.600Z,3.15
2023-06-07T08:49:35.048Z,2.20
2023-06-07T08:52:15.633Z,5.65
2023-06-07T08:54:48.424Z,2.45
2023-06-07T08:57:20.208Z,2.05
2023-06-07T08:59:49.795Z,2.78
2023-06-07T09:02:21.158Z,2.42
2023-06-07T09:04:48.927Z,2.45
2023-06-07T09:07:16.578Z,2.67
2023-06-07T09:09:45.118Z,2.60
2023-06-07T09:12:12.795Z,2.90
2023-06-07T09:14:41.409Z,2.80
2023-06-07T09:17:09.857Z,3.20
2023-06-07T09:19:42.751Z,3.00
2023-06-07T09:22:18.469Z,3.15
2023-06-07T09:24:46.269Z,4.75
2023-06-07T09:27:14.718Z,4.50
2023-06-07T09:29:44.587Z,4.03
2023-06-07T09:32:25.191Z,3.05
2023-06-07T09:35:11.245Z,3.15
2023-06-07T09:37:47.776Z,2.72
2023-06-07T09:40:16.521Z,3.58
2023-06-07T09:42:45.038Z,2.83
2023-06-07T09:45:17.101Z,3.58
2023-06-07T09:47:44.913Z,3.03
2023-06-07T09:50:14.806Z,2.53
2023-06-07T09:52:42.527Z,3.47
2023-06-07T09:55:28.659Z,3.17
2023-06-07T09:57:57.623Z,6.22
2023-06-07T10:00:27.279Z,3.10
2023-06-07T10:03:07.268Z,3.20
2023-06-07T10:05:36.204Z,2.75
2023-06-07T10:08:05.998Z,3.13
2023-06-07T10:10:36.316Z,2.88
2023-06-07T10:13:06.949Z,2.67
2023-06-07T10:15:37.085Z,6.55
2023-06-07T10:18:25.513Z,3.72
2023-06-07T10:21:02.064Z,2.60
2023-06-07T10:24:08.527Z,2.78
2023-06-07T10:27:00.978Z,2.65
2023-06-07T10:29:47.252Z,2.13
2023-06-07T10:32:31.631Z,2.40
2023-06-07T10:35:02.144Z,2.90
2023-06-07T10:37:32.260Z,2.67
2023-06-07T10:40:07.270Z,5.82
2023-06-07T10:42:35.374Z,3.45
2023-06-07T10:45:02.958Z,4.03
2023-06-07T10:47:33.739Z,4.28
2023-06-07T10:50:01.697Z,3.63
2023-06-07T10:52:29.530Z,3.58
2023-06-07T10:54:57.119Z,3.92
2023-06-07T10:57:39.244Z,7.57
2023-06-07T11:00:32.706Z,3.47
2023-06-07T11:03:06.401Z,2.90
2023-06-07T11:06:07.831Z,2.97
2023-06-07T11:08:38.249Z,2.90
2023-06-07T11:11:41.373Z,7.68
2023-06-07T11:14:08.931Z,6.20
2023-06-07T11:16:36.825Z,3.53
2023-06-07T11:19:11.244Z,3.20
2023-06-07T11:21:57.101Z,2.72
2023-06-07T11:24:25.839Z,3.03
2023-06-07T11:26:53.488Z,3.05
2023-06-07T11:29:22.195Z,16.65
2023-06-07T11:32:02.194Z,3.42
2023-06-07T11:34:32.760Z,2.45
2023-06-07T11:37:15.797Z,2.80
2023-06-07T11:39:44.246Z,2.90
2023-06-07T11:42:11.691Z,2.25
2023-06-07T11:44:39.989Z,2.28
2023-06-07T11:47:08.533Z,2.13
2023-06-07T11:49:42.164Z,1.77
2023-06-07T11:52:09.882Z,1.85
2023-06-07T11:54:43.507Z,1.80
2023-06-07T11:57:11.326Z,3.80
2023-06-07T11:59:40.810Z,2.72
2023-06-07T12:02:09.856Z,2.08
2023-06-07T12:04:38.315Z,1.90
2023-06-07T12:07:19.672Z,3.05
2023-06-07T12:09:50.802Z,2.40
2023-06-07T12:12:18.142Z,2.22
2023-06-07T12:14:48.363Z,2.58
2023-06-07T12:17:15.780Z,2.47
2023-06-07T12:19:43.718Z,2.55
2023-06-07T12:22:11.015Z,2.38
2023-06-07T12:24:41.682Z,2.42
2023-06-07T12:27:13.314Z,5.10
2023-06-07T12:29:42.310Z,3.45
2023-06-07T12:32:11.314Z,6.78
2023-06-07T12:34:45.444Z,1.98
2023-06-07T12:37:12.928Z,2.00
2023-06-07T12:39:40.961Z,1.90
2023-06-07T12:42:08.959Z,2.50
2023-06-07T12:44:36.594Z,1.92
2023-06-07T12:47:04.140Z,2.90
2023-06-07T12:49:32.695Z,5.53
2023-06-07T12:52:00.073Z,5.57
2023-06-07T12:54:27.982Z,2.03
2023-06-07T12:56:55.776Z,2.28
2023-06-07T12:59:23.384Z,2.42
2023-06-07T13:01:51.023Z,2.00
2023-06-07T13:04:18.715Z,2.28
2023-06-07T13:06:46.121Z,2.60
2023-06-07T13:09:13.831Z,1.98
2023-06-07T13:11:43.202Z,2.45
2023-06-07T13:14:11.123Z,2.25
2023-06-07T13:16:38.975Z,1.98
2023-06-07T13:19:06.901Z,2.03
2023-06-07T13:21:34.249Z,2.22
2023-06-07T13:24:01.960Z,2.10
2023-06-07T13:26:29.683Z,2.20
2023-06-07T13:28:57.399Z,2.13
2023-06-07T13:31:26.620Z,2.10
2023-06-07T13:33:54.550Z,3.75
2023-06-07T13:36:21.868Z,3.67
2023-06-07T13:38:50.068Z,3.58
2023-06-07T13:41:17.388Z,2.42
2023-06-07T13:43:59.964Z,2.70
2023-06-07T13:46:35.691Z,2.30
2023-06-07T13:49:03.375Z,1.90
2023-06-07T13:51:30.796Z,1.80
2023-06-07T13:53:58.736Z,2.15
2023-06-07T13:56:27.222Z,1.70
2023-06-07T13:58:59.037Z,1.85
2023-06-07T14:01:28.303Z,1.90
2023-06-07T14:03:57.094Z,2.60
2023-06-07T14:06:24.715Z,1.75
2023-06-07T14:08:52.339Z,2.00
2023-06-07T14:11:19.818Z,2.20
2023-06-07T14:13:47.436Z,2.08
2023-06-07T14:16:14.786Z,2.28
2023-06-07T14:18:42.387Z,2.05
2023-06-07T14:21:09.884Z,1.98
2023-06-07T14:23:37.499Z,2.22
2023-06-07T14:26:04.874Z,1.88
2023-06-07T14:28:32.587Z,2.25
2023-06-07T14:31:01.327Z,2.90
2023-06-07T14:33:29.115Z,2.55
2023-06-07T14:35:56.491Z,3.05
2023-06-07T14:38:24.522Z,1.83
2023-06-07T14:40:51.920Z,1.75
2023-06-07T14:43:19.494Z,2.45
2023-06-07T14:45:46.842Z,2.42
2023-06-07T14:48:14.633Z,1.77
2023-06-07T14:50:41.937Z,1.83
2023-06-07T14:53:09.594Z,2.00
2023-06-07T14:55:36.939Z,1.67
2023-06-07T14:58:05.968Z,2.10
2023-06-07T15:00:34.850Z,2.08
2023-06-07T15:03:02.582Z,5.13
2023-06-07T15:05:30.536Z,5.13
2023-06-07T15:07:58.142Z,2.20
2023-06-07T15:10:25.464Z,1.80
2023-06-07T15:12:53.192Z,2.20
2023-06-07T15:15:22.268Z,2.00
2023-06-07T15:17:52.079Z,2.05
2023-06-07T15:20:21.104Z,2.30
2023-06-07T15:22:48.814Z,2.40
2023-06-07T15:25:16.235Z,1.90
2023-06-07T15:27:43.992Z,2.10
2023-06-07T15:30:13.110Z,2.25
2023-06-07T15:32:40.824Z,2.00
2023-06-07T15:35:10.900Z,1.63
2023-06-07T15:37:40.892Z,2.00
2023-06-07T15:40:09.214Z,1.80
2023-06-07T15:42:39.466Z,3.80
2023-06-07T15:45:07.847Z,2.17
2023-06-07T15:47:35.638Z,2.30
2023-06-07T15:50:03.390Z,3.05
2023-06-07T15:52:31.308Z,2.30
2023-06-07T15:54:58.621Z,2.45
2023-06-07T15:57:26.181Z,2.40
2023-06-07T15:59:53.547Z,2.70
2023-06-07T16:02:21.125Z,2.30
2023-06-07T16:04:48.608Z,2.50
2023-06-07T16:07:16.264Z,2.35
2023-06-07T16:09:43.572Z,2.22
2023-06-07T16:12:12.222Z,2.35
2023-06-07T16:14:41.611Z,2.47
2023-06-07T16:17:09.309Z,2.67
2023-06-07T16:19:37.801Z,2.60
2023-06-07T16:22:05.593Z,2.97
2023-06-07T16:24:32.901Z,2.83
2023-06-07T16:27:00.866Z,5.65
2023-06-07T16:29:28.178Z,3.67
2023-06-07T16:31:55.889Z,5.10
2023-06-07T16:34:23.284Z,2.75
2023-06-07T16:36:50.977Z,2.90
2023-06-07T16:39:18.249Z,2.25
2023-06-07T16:41:45.880Z,2.47
2023-06-07T16:44:13.656Z,2.50
2023-06-07T16:46:43.136Z,3.80
2023-06-07T16:49:12.466Z,4.47
2023-06-07T16:51:40.233Z,2.92
2023-06-07T16:54:07.580Z,2.38
2023-06-07T16:56:35.277Z,2.65
2023-06-07T16:59:02.609Z,2.50
2023-06-07T17:01:32.322Z,5.43
2023-06-07T17:04:00.315Z,3.95
2023-06-07T17:06:27.933Z,3.25
2023-06-07T17:08:55.656Z,3.25
2023-06-07T17:11:23.266Z,2.53
2023-06-07T17:13:50.592Z,3.00
2023-06-07T17:16:18.376Z,2.75
2023-06-07T17:18:45.794Z,2.50
2023-06-07T17:21:13.825Z,3.30
2023-06-07T17:23:41.917Z,2.53
2023-06-07T17:26:10.113Z,2.60
2023-06-07T17:28:37.423Z,2.90
2023-06-07T17:31:05.428Z,7.75
2023-06-07T17:33:32.994Z,3.55
2023-06-07T17:36:00.620Z,3.05
2023-06-07T17:38:27.979Z,2.60
2023-06-07T17:40:55.548Z,4.53
2023-06-07T17:43:22.876Z,4.25
2023-06-07T17:45:51.142Z,10.50
2023-06-07T17:48:18.924Z,6.20
2023-06-07T17:50:47.608Z,3.60
2023-06-07T17:53:15.571Z,3.90
2023-06-07T17:55:46.448Z,3.47
2023-06-07T17:58:14.523Z,3.38
2023-06-07T18:00:42.336Z,2.92
2023-06-07T18:03:12.835Z,3.25
2023-06-07T18:05:40.795Z,2.80
2023-06-07T18:08:08.292Z,2.95
2023-06-07T18:10:35.909Z,2.85
2023-06-07T18:13:04.625Z,3.58
2023-06-07T18:15:32.742Z,5.10
2023-06-07T18:18:00.191Z,4.72
2023-06-07T18:20:28.316Z,5.53
2023-06-07T18:22:57.955Z,4.10
2023-06-07T18:25:25.818Z,3.42
2023-06-07T18:27:53.326Z,2.70
2023-06-07T18:30:20.894Z,3.25
2023-06-07T18:32:49.590Z,2.58
2023-06-07T18:35:17.264Z,2.78
2023-06-07T18:37:44.568Z,2.90
2023-06-07T18:40:12.548Z,3.20
2023-06-07T18:42:39.994Z,4.13
2023-06-07T18:45:08.964Z,5.10
2023-06-07T18:47:36.494Z,3.65
2023-06-07T18:50:05.433Z,3.08
2023-06-07T18:52:33.471Z,2.95
2023-06-07T18:55:01.094Z,3.00
2023-06-07T18:57:28.421Z,3.25
2023-06-07T18:59:56.044Z,2.88
2023-06-07T19:02:24.970Z,3.05
2023-06-07T19:04:52.896Z,2.80
2023-06-07T19:07:20.389Z,3.15
2023-06-07T19:09:48.275Z,3.10
2023-06-07T19:12:15.722Z,3.40
2023-06-07T19:14:43.676Z,4.30
2023-06-07T19:17:12.029Z,5.60
2023-06-07T19:19:40.227Z,5.15
2023-06-07T19:22:10.697Z,3.85
2023-06-07T19:24:44.129Z,3.97
2023-06-07T19:27:12.784Z,5.45
2023-06-07T19:29:42.265Z,4.03
2023-06-07T19:32:10.766Z,4.50
2023-06-07T19:34:38.408Z,4.53
2023-06-07T19:37:06.791Z,6.13
2023-06-07T19:39:34.512Z,11.20
2023-06-07T19:42:07.987Z,8.38
2023-06-07T19:44:38.985Z,4.07
2023-06-07T19:47:08.103Z,4.30
2023-06-07T19:49:36.394Z,4.25
2023-06-07T19:52:04.161Z,4.55
2023-06-07T19:54:31.973Z,4.65
2023-06-07T19:56:59.675Z,4.22
2023-06-07T19:59:27.345Z,4.15
2023-06-07T20:01:55.338Z,4.28
2023-06-07T20:04:22.961Z,4.40
2023-06-07T20:06:50.278Z,4.40
2023-06-07T20:09:17.863Z,4.82
2023-06-07T20:11:45.140Z,4.70
2023-06-07T20:14:13.454Z,4.75
2023-06-07T20:16:40.821Z,4.85
2023-06-07T20:19:08.432Z,4.63
2023-06-07T20:21:37.235Z,4.70
2023-06-07T20:24:05.979Z,4.05
2023-06-07T20:26:33.305Z,4.00
2023-06-07T20:29:02.582Z,4.22
2023-06-07T20:31:30.045Z,4.00
2023-06-07T20:33:57.685Z,4.38
2023-06-07T20:36:27.173Z,4.75
2023-06-07T20:38:54.823Z,5.05
2023-06-07T20:41:22.068Z,5.13
2023-06-07T20:43:49.719Z,5.13
2023-06-07T20:46:17.129Z,4.55
2023-06-07T20:48:44.814Z,4.18
2023-06-07T20:51:12.103Z,4.20
2023-06-07T20:53:39.773Z,4.82
2023-06-07T20:56:07.205Z,4.57
2023-06-07T20:58:34.825Z,4.50
2023-06-07T21:01:02.110Z,6.65
2023-06-07T21:03:29.888Z,4.90
2023-06-07T21:05:57.437Z,4.90
2023-06-07T21:08:25.036Z,3.58
2023-06-07T21:10:52.358Z,4.45
2023-06-07T21:13:20.032Z,4.22
2023-06-07T21:15:47.463Z,4.63
2023-06-07T21:18:15.202Z,4.53
2023-06-07T21:20:42.486Z,3.85
2023-06-07T21:23:12.268Z,3.20
2023-06-07T21:25:40.605Z,4.38
2023-06-07T21:28:08.262Z,3.42
2023-06-07T21:30:35.878Z,4.95
2023-06-07T21:33:05.058Z,3.75
2023-06-07T21:35:33.243Z,3.35
2023-06-07T21:38:01.287Z,3.13
2023-06-07T21:40:28.764Z,2.40
2023-06-07T21:42:56.494Z,2.42
2023-06-07T21:45:27.820Z,1.88
2023-06-07T21:47:55.692Z,2.17
2023-06-07T21:50:23.211Z,1.77
2023-06-07T21:52:52.026Z,2.65
2023-06-07T21:55:19.332Z,2.67
2023-06-07T21:57:47.960Z,2.40
2023-06-07T22:00:16.397Z,3.03
2023-06-07T22:02:44.065Z,2.90
2023-06-07T22:05:11.470Z,3.38
2023-06-07T22:07:40.081Z,5.13
2023-06-07T22:10:08.124Z,4.45
2023-06-07T22:12:38.083Z,6.00
2023-06-07T22:15:06.116Z,4.70
2023-06-07T22:17:34.566Z,6.03
2023-06-07T22:20:09.642Z,5.57
2023-06-07T22:22:37.632Z,5.22
2023-06-07T22:25:05.634Z,5.05
2023-06-07T22:27:34.096Z,5.63
2023-06-07T22:30:01.506Z,4.25
2023-06-07T22:32:30.215Z,3.40
2023-06-07T22:35:05.481Z,4.10
2023-06-07T22:37:36.896Z,4.38
2023-06-07T22:40:06.570Z,4.50
2023-06-07T22:42:35.272Z,3.97
2023-06-07T22:45:03.723Z,4.22
2023-06-07T22:47:31.580Z,3.53
2023-06-07T22:50:01.970Z,4.38
2023-06-07T22:52:33.908Z,3.92
2023-06-07T22:55:02.457Z,3.13
2023-06-07T22:57:32.099Z,3.47
2023-06-07T22:59:59.487Z,5.35
2023-06-07T23:02:30.014Z,4.45
2023-06-07T23:04:57.697Z,3.78
2023-06-07T23:07:25.463Z,3.92
2023-06-07T23:09:52.857Z,3.85
2023-06-07T23:12:21.332Z,4.63
2023-06-07T23:14:49.749Z,5.43
2023-06-07T23:17:18.609Z,4.70
2023-06-07T23:19:46.719Z,3.92
2023-06-07T23:22:14.305Z,4.93
2023-06-07T23:24:42.161Z,4.18
2023-06-07T23:27:09.750Z,4.85
2023-06-07T23:29:37.104Z,5.57
2023-06-07T23:32:05.784Z,4.80
2023-06-07T23:34:34.723Z,4.35
2023-06-07T23:37:02.374Z,4.55
2023-06-07T23:39:29.655Z,3.40
2023-06-07T23:41:57.465Z,3.10
2023-06-07T23:44:28.930Z,3.20
2023-06-07T23:46:57.073Z,3.38
2023-06-07T23:49:35.602Z,4.65
2023-06-07T23:52:04.274Z,5.38
2023-06-07T23:54:31.666Z,5.00
2023-06-07T23:57:00.304Z,5.22
2023-06-07T23:59:27.888Z,4.72
